Time;durP1;ratioP1;P1;durP2;ratioP2;P2;SDS_P1;SDS_P2;PMS_P1;PMS_P2;Temp;Humidity;BMP_temperature;BMP_pressure;BME280_temperature;BME280_humidity;BME280_pressure;Samples;Min_cycle;Max_cycle;Signal;HPM_P1;HPM_P2
2023/04/08 00:01:43;;;;;;;25.23;6.87;;;;;;;42.57;34.03;100856.75;5056681;28;20809;-80
2023/04/08 00:04:09;;;;;;;11.23;5.83;;;;;;;42.64;33.41;100855.06;5056604;28;20453;-80
2023/04/08 00:06:36;;;;;;;16.30;8.17;;;;;;;42.20;33.82;100848.47;5067453;28;20281;-82
2023/04/08 00:09:02;;;;;;;18.57;8.30;;;;;;;42.60;33.55;100848.72;5066971;28;20431;-80
2023/04/08 00:11:28;;;;;;;19.73;7.53;;;;;;;42.31;34.11;100862.50;5063410;28;20449;-80
2023/04/08 00:13:54;;;;;;;20.97;7.10;;;;;;;42.77;33.53;100868.72;5092314;28;20506;-79
2023/04/08 00:16:20;;;;;;;19.90;6.30;;;;;;;42.73;33.41;100857.72;5064738;28;20421;-79
2023/04/08 00:18:46;;;;;;;26.33;8.93;;;;;;;42.59;33.90;100855.28;5067612;28;20424;-79
2023/04/08 00:21:13;;;;;;;18.77;6.73;;;;;;;42.72;33.79;100855.28;5074961;28;20281;-79
2023/04/08 00:23:39;;;;;;;14.53;5.60;;;;;;;42.74;33.52;100842.94;5072777;28;20837;-80
2023/04/08 00:26:05;;;;;;;14.60;6.60;;;;;;;42.74;34.06;100845.66;5065091;28;21036;-81
2023/04/08 00:28:31;;;;;;;23.07;7.70;;;;;;;42.74;33.85;100848.38;5063004;28;20805;-80
2023/04/08 00:30:57;;;;;;;18.70;6.60;;;;;;;42.57;34.34;100845.81;5062824;28;20456;-80
2023/04/08 00:33:24;;;;;;;17.13;7.53;;;;;;;42.80;33.94;100843.50;5055690;28;20457;-80
2023/04/08 00:35:51;;;;;;;24.13;8.20;;;;;;;42.66;34.37;100843.81;5074300;28;20448;-82
2023/04/08 00:38:17;;;;;;;26.70;8.00;;;;;;;42.50;34.53;100840.94;5072043;28;20413;-82
2023/04/08 00:40:43;;;;;;;16.37;5.57;;;;;;;42.24;34.68;100824.88;5093027;28;21025;-79
2023/04/08 00:43:09;;;;;;;23.03;8.70;;;;;;;42.47;34.34;100827.16;5072564;28;20485;-79
2023/04/08 00:45:35;;;;;;;17.20;7.27;;;;;;;42.44;34.44;100830.59;5075477;28;20466;-79
2023/04/08 00:48:04;;;;;;;12.50;5.63;;;;;;;42.23;33.96;100820.53;5058023;28;20451;-80
2023/04/08 00:50:31;;;;;;;20.60;6.30;;;;;;;42.31;33.92;100822.38;5072156;28;21066;-79
2023/04/08 00:52:56;;;;;;;11.30;5.63;;;;;;;42.32;35.16;100809.56;5052271;28;20783;-80
2023/04/08 00:55:22;;;;;;;16.50;7.03;;;;;;;42.42;34.79;100821.94;5060746;28;20425;-81
2023/04/08 00:57:48;;;;;;;16.17;5.93;;;;;;;42.35;34.55;100800.69;5071140;28;20199;-81
2023/04/08 01:00:15;;;;;;;14.50;5.60;;;;;;;42.31;34.46;100794.31;5072144;28;20413;-81
2023/04/08 01:03:22;;;;;;;16.67;7.10;;;;;;;42.17;34.83;100791.09;5055263;28;20538;-80
2023/04/08 01:06:14;;;;;;;15.57;6.27;;;;;;;42.09;35.17;100785.38;5064664;28;20418;-80
2023/04/08 01:08:42;;;;;;;12.53;5.40;;;;;;;42.06;35.12;100777.91;5052582;28;20430;-80
2023/04/08 01:11:12;;;;;;;15.67;5.80;;;;;;;42.30;34.91;100785.34;5057619;28;20449;-80
2023/04/08 01:13:43;;;;;;;16.37;5.67;;;;;;;42.38;34.91;100775.47;5058691;28;20423;-80
2023/04/08 01:16:12;;;;;;;15.20;5.43;;;;;;;42.29;34.75;100777.50;5064195;28;20510;-79
2023/04/08 01:18:39;;;;;;;21.37;6.57;;;;;;;42.20;34.71;100771.38;5063778;28;20417;-80
2023/04/08 01:21:06;;;;;;;14.50;5.93;;;;;;;42.32;34.50;100774.91;5062813;28;20461;-80
2023/04/08 01:23:43;;;;;;;15.43;6.10;;;;;;;42.31;34.57;100759.69;5050289;28;20433;-80
2023/04/08 01:26:21;;;;;;;18.93;6.40;;;;;;;42.24;34.58;100754.00;5051085;28;21019;-79
2023/04/08 01:28:51;;;;;;;13.13;5.37;;;;;;;42.39;34.48;100763.44;5061656;28;21003;-79
2023/04/08 01:31:18;;;;;;;16.83;5.37;;;;;;;42.06;34.74;100761.53;5059259;28;20449;-80
2023/04/08 01:33:46;;;;;;;17.40;7.07;;;;;;;41.82;35.21;100766.94;5067946;28;20552;-80
2023/04/08 01:36:14;;;;;;;16.13;5.80;;;;;;;42.33;34.46;100751.16;5058639;28;20415;-80
2023/04/08 01:38:40;;;;;;;17.90;6.73;;;;;;;42.12;34.51;100748.50;5054402;28;20463;-80
2023/04/08 01:41:10;;;;;;;16.63;6.40;;;;;;;42.34;34.13;100742.63;5057588;28;20446;-80
2023/04/08 01:43:40;;;;;;;15.23;5.63;;;;;;;41.71;34.89;100742.00;5058102;28;20394;-79
2023/04/08 01:46:09;;;;;;;14.50;6.37;;;;;;;42.13;34.41;100728.28;5069212;28;20418;-82
2023/04/08 01:48:36;;;;;;;14.77;5.77;;;;;;;42.31;33.98;100731.63;5038019;28;20426;-81
2023/04/08 01:51:04;;;;;;;13.57;7.13;;;;;;;42.18;34.09;100717.19;5064187;28;20553;-80
2023/04/08 01:53:31;;;;;;;14.97;5.93;;;;;;;42.18;34.37;100722.66;5039010;28;20447;-80
2023/04/08 01:56:03;;;;;;;20.63;6.10;;;;;;;42.28;34.25;100722.19;5050626;28;20544;-80
2023/04/08 01:58:36;;;;;;;20.47;6.20;;;;;;;41.80;35.40;100710.03;5062682;28;20426;-81
2023/04/08 02:01:05;;;;;;;13.73;5.17;;;;;;;41.71;35.42;100705.78;5052607;28;20415;-81
2023/04/08 02:03:33;;;;;;;12.37;5.70;;;;;;;42.14;34.56;100694.44;5069446;28;20475;-82
2023/04/08 02:05:59;;;;;;;16.23;6.13;;;;;;;42.30;34.35;100700.06;5065935;28;20843;-80
2023/04/08 02:08:25;;;;;;;20.37;6.10;;;;;;;42.35;34.64;100692.41;5060591;28;20956;-81
2023/04/08 02:10:51;;;;;;;15.17;6.37;;;;;;;42.29;34.68;100684.81;5068390;28;20512;-80
2023/04/08 02:13:17;;;;;;;15.90;6.73;;;;;;;42.21;34.44;100672.88;5070039;28;20452;-80
2023/04/08 02:15:52;;;;;;;18.47;6.20;;;;;;;42.37;34.27;100665.63;5068651;28;20417;-79
2023/04/08 02:18:27;;;;;;;14.60;6.50;;;;;;;42.22;34.62;100660.84;5070501;28;20421;-80
2023/04/08 02:21:03;;;;;;;20.50;8.20;;;;;;;42.35;34.36;100653.44;5069602;28;20437;-80
2023/04/08 02:23:33;;;;;;;19.40;6.33;;;;;;;42.39;34.09;100657.88;5054530;28;20454;-80
2023/04/08 02:26:01;;;;;;;12.60;5.30;;;;;;;42.38;34.14;100639.16;5058199;28;20418;-79
2023/04/08 02:28:30;;;;;;;15.33;5.37;;;;;;;42.25;34.51;100635.66;5049125;28;20439;-80
2023/04/08 02:30:57;;;;;;;17.70;6.27;;;;;;;42.32;34.40;100624.97;5060551;28;20908;-80
2023/04/08 02:33:25;;;;;;;16.83;6.10;;;;;;;42.25;34.25;100629.41;5048318;28;20434;-80
2023/04/08 02:35:55;;;;;;;16.87;6.20;;;;;;;42.32;34.01;100621.44;5058036;28;20444;-80
2023/04/08 02:38:22;;;;;;;16.87;5.83;;;;;;;42.17;34.58;100622.13;5068001;28;20938;-80
2023/04/08 02:40:51;;;;;;;14.93;5.80;;;;;;;42.06;35.25;100628.00;5068547;28;20445;-80
2023/04/08 02:43:17;;;;;;;21.23;6.20;;;;;;;42.05;35.38;100626.44;5067884;28;20831;-82
2023/04/08 02:45:44;;;;;;;16.37;6.73;;;;;;;42.13;35.50;100617.34;5069640;28;20426;-81
2023/04/08 02:48:10;;;;;;;11.43;5.80;;;;;;;42.14;35.58;100604.50;5053754;28;20517;-82
2023/04/08 02:50:36;;;;;;;16.73;6.93;;;;;;;42.00;36.15;100593.94;5055653;28;20498;-81
2023/04/08 02:53:03;;;;;;;18.20;6.23;;;;;;;41.95;36.13;100607.78;5043793;28;20466;-82
2023/04/08 02:55:29;;;;;;;19.80;6.43;;;;;;;41.88;36.09;100613.03;5041055;28;20947;-81
2023/04/08 02:57:55;;;;;;;18.57;6.73;;;;;;;41.98;36.27;100609.03;5031230;28;20484;-82
2023/04/08 03:00:21;;;;;;;15.63;6.17;;;;;;;41.90;36.63;100608.00;5031383;28;20577;-81
2023/04/08 03:02:47;;;;;;;18.50;7.13;;;;;;;42.00;36.33;100606.78;5045242;28;20218;-79
2023/04/08 03:05:15;;;;;;;15.90;5.30;;;;;;;42.10;36.30;100604.38;5044887;28;20426;-79
2023/04/08 03:07:41;;;;;;;18.03;8.33;;;;;;;42.17;35.89;100603.03;5034796;28;20184;-79
2023/04/08 03:10:07;;;;;;;14.43;5.57;;;;;;;42.07;36.37;100601.56;5034692;28;20462;-79
2023/04/08 03:12:33;;;;;;;12.03;4.87;;;;;;;42.05;36.29;100609.25;5064449;28;20191;-80
2023/04/08 03:15:00;;;;;;;21.63;8.13;;;;;;;42.02;35.79;100613.47;5043967;28;20442;-79
2023/04/08 03:17:26;;;;;;;13.63;6.17;;;;;;;41.96;36.46;100612.09;5052179;28;20183;-81
2023/04/08 03:19:52;;;;;;;19.20;6.10;;;;;;;42.02;36.27;100616.19;5054733;28;20438;-79
2023/04/08 03:22:18;;;;;;;23.20;7.03;;;;;;;41.86;36.54;100621.50;5054403;28;20415;-79
2023/04/08 03:24:44;;;;;;;17.73;5.43;;;;;;;42.18;36.21;100613.63;5048447;28;20426;-80
2023/04/08 03:27:11;;;;;;;17.57;8.20;;;;;;;42.03;36.06;100600.63;5036443;28;21065;-80
2023/04/08 03:29:37;;;;;;;14.10;6.07;;;;;;;42.10;35.76;100614.47;5034942;28;20462;-80
2023/04/08 03:32:03;;;;;;;16.80;5.47;;;;;;;41.97;35.60;100597.34;5048140;28;20803;-80
2023/04/08 03:34:30;;;;;;;10.47;5.10;;;;;;;42.04;35.53;100603.00;5033921;28;20799;-80
2023/04/08 03:36:56;;;;;;;14.37;5.63;;;;;;;41.77;35.85;100614.59;5039710;28;20949;-80
2023/04/08 03:39:22;;;;;;;18.70;6.50;;;;;;;41.83;36.21;100608.59;5043030;28;20565;-79
2023/04/08 03:41:48;;;;;;;21.90;6.23;;;;;;;41.87;36.32;100619.59;5039346;28;20200;-80
2023/04/08 03:44:14;;;;;;;23.00;7.03;;;;;;;41.99;36.13;100630.50;5042085;28;20810;-80
2023/04/08 03:46:40;;;;;;;17.67;6.13;;;;;;;41.89;36.10;100636.41;5047452;28;20434;-80
2023/04/08 03:49:06;;;;;;;11.63;6.00;;;;;;;42.02;36.09;100631.75;5055913;28;20418;-81
2023/04/08 03:51:32;;;;;;;27.53;6.03;;;;;;;41.87;36.32;100635.97;5064945;28;20231;-80
2023/04/08 03:53:58;;;;;;;14.80;6.47;;;;;;;41.49;36.76;100638.91;5062598;28;20417;-80
2023/04/08 03:56:24;;;;;;;32.27;9.87;;;;;;;41.90;36.18;100645.38;5055376;28;20203;-80
2023/04/08 03:58:50;;;;;;;16.73;5.80;;;;;;;42.03;36.13;100650.47;5053957;28;20214;-78
2023/04/08 04:01:16;;;;;;;12.30;5.00;;;;;;;41.81;36.54;100654.44;5070666;28;20421;-78
2023/04/08 04:03:42;;;;;;;23.83;7.33;;;;;;;41.84;36.26;100661.13;5061638;28;20422;-81
2023/04/08 04:06:08;;;;;;;15.67;5.33;;;;;;;41.70;36.20;100645.09;5048757;28;20420;-82
2023/04/08 04:08:34;;;;;;;14.40;7.90;;;;;;;41.98;35.71;100653.41;5034532;28;20455;-81
2023/04/08 04:11:00;;;;;;;13.47;5.70;;;;;;;42.00;35.50;100659.34;5034936;28;20553;-79
2023/04/08 04:13:26;;;;;;;15.70;6.80;;;;;;;41.70;36.27;100668.81;5033132;28;20476;-79
2023/04/08 04:15:52;;;;;;;11.83;5.80;;;;;;;41.75;36.09;100688.47;5039088;28;20461;-79
2023/04/08 04:18:18;;;;;;;22.63;6.90;;;;;;;41.98;35.77;100690.78;5053346;28;20800;-82
2023/04/08 04:20:44;;;;;;;21.40;7.10;;;;;;;41.89;35.86;100681.91;5050788;28;20183;-82
2023/04/08 04:23:10;;;;;;;15.73;7.93;;;;;;;41.96;36.11;100679.44;5052280;28;20180;-79
2023/04/08 04:25:38;;;;;;;15.00;6.23;;;;;;;41.98;36.13;100688.84;5052738;28;20433;-81
2023/04/08 04:28:04;;;;;;;25.43;9.07;;;;;;;41.86;36.28;100680.66;5042328;28;20411;-82
2023/04/08 04:30:30;;;;;;;17.33;7.80;;;;;;;41.86;36.27;100689.63;5037272;28;20455;-80
2023/04/08 04:32:56;;;;;;;19.03;6.27;;;;;;;41.95;35.91;100681.38;5039597;28;20423;-79
2023/04/08 04:35:22;;;;;;;17.83;6.50;;;;;;;41.99;35.85;100695.09;5032886;28;20177;-79
2023/04/08 04:37:50;;;;;;;17.50;5.70;;;;;;;41.86;35.82;100686.09;5033040;28;20796;-80
2023/04/08 04:40:16;;;;;;;19.13;6.03;;;;;;;42.01;35.70;100693.63;5033282;28;20486;-82
2023/04/08 04:42:42;;;;;;;14.43;5.83;;;;;;;41.98;36.00;100693.50;5033569;28;20416;-81
2023/04/08 04:45:08;;;;;;;18.60;7.60;;;;;;;42.13;36.08;100698.31;5046499;28;20435;-80
2023/04/08 04:47:35;;;;;;;22.53;7.90;;;;;;;42.06;35.91;100696.13;5043939;28;20212;-80
2023/04/08 04:50:00;;;;;;;16.07;4.83;;;;;;;41.92;35.67;100679.28;5056519;28;20482;-80
2023/04/08 04:52:26;;;;;;;15.83;6.00;;;;;;;41.99;35.43;100695.91;5055686;28;20500;-79
2023/04/08 04:54:52;;;;;;;17.37;6.27;;;;;;;42.10;35.74;100693.50;5052743;28;20438;-80
2023/04/08 04:57:18;;;;;;;19.63;5.50;;;;;;;42.23;35.79;100697.06;5063631;28;20187;-79
2023/04/08 04:59:44;;;;;;;18.90;6.00;;;;;;;42.17;35.82;100701.16;5053538;28;20797;-80
2023/04/08 05:02:10;;;;;;;12.90;6.23;;;;;;;42.00;35.89;100704.88;5063970;28;20956;-80
2023/04/08 05:04:36;;;;;;;9.97;4.13;;;;;;;42.06;36.01;100709.78;5071513;28;20449;-80
2023/04/08 05:07:02;;;;;;;13.93;6.00;;;;;;;42.22;35.26;100714.56;5060414;28;20234;-81
2023/04/08 05:09:28;;;;;;;16.87;6.90;;;;;;;42.14;35.44;100721.69;5056224;28;20743;-81
2023/04/08 05:11:55;;;;;;;15.90;6.23;;;;;;;42.12;35.35;100721.25;5064007;28;20442;-82
2023/04/08 05:14:21;;;;;;;12.10;5.90;;;;;;;42.10;35.58;100724.28;5052132;28;20457;-82
2023/04/08 05:16:47;;;;;;;16.60;5.80;;;;;;;41.80;36.20;100711.97;5039969;28;20419;-82
2023/04/08 05:19:13;;;;;;;12.97;5.40;;;;;;;41.82;35.68;100720.63;5032262;28;20185;-80
2023/04/08 05:21:39;;;;;;;23.27;7.00;;;;;;;41.49;36.44;100724.09;5043752;28;20415;-80
2023/04/08 05:24:05;;;;;;;19.50;4.90;;;;;;;41.82;35.55;100729.59;5051233;28;20422;-79
2023/04/08 05:26:31;;;;;;;15.67;5.33;;;;;;;41.93;35.47;100746.31;5040501;28;20493;-81
2023/04/08 05:28:57;;;;;;;24.83;6.40;;;;;;;41.66;35.66;100735.97;5039051;28;20426;-82
2023/04/08 05:31:23;;;;;;;12.80;4.90;;;;;;;42.02;35.47;100751.66;5040485;28;20459;-80
2023/04/08 05:33:49;;;;;;;17.57;6.70;;;;;;;41.94;35.73;100758.00;5033418;28;20434;-80
2023/04/08 05:36:15;;;;;;;20.83;6.50;;;;;;;42.00;35.99;100756.66;5035004;28;20428;-79
2023/04/08 05:38:43;;;;;;;20.47;5.13;;;;;;;42.06;35.68;100752.56;5045997;28;20419;-79
2023/04/08 05:41:09;;;;;;;14.97;7.77;;;;;;;42.17;35.51;100764.63;5032466;28;20501;-81
2023/04/08 05:43:35;;;;;;;11.53;4.80;;;;;;;42.07;35.85;100765.84;5050822;28;20426;-82
2023/04/08 05:46:10;;;;;;;17.70;6.13;;;;;;;42.06;35.54;100767.00;5039586;28;20423;-80
2023/04/08 05:48:36;;;;;;;21.23;4.97;;;;;;;41.99;35.32;100765.94;5033919;28;20426;-82
2023/04/08 05:51:02;;;;;;;15.20;6.10;;;;;;;42.00;35.31;100775.72;5044292;28;20478;-82
2023/04/08 05:53:28;;;;;;;13.20;5.70;;;;;;;41.90;35.21;100765.25;5045556;28;20478;-79
2023/04/08 05:55:57;;;;;;;20.83;6.17;;;;;;;41.74;35.53;100760.44;5045043;28;20427;-79
2023/04/08 05:58:23;;;;;;;13.67;6.13;;;;;;;42.07;35.48;100765.06;5044079;28;20857;-80
2023/04/08 06:00:49;;;;;;;19.53;7.63;;;;;;;42.00;35.78;100759.38;5047465;28;20912;-79
2023/04/08 06:03:15;;;;;;;18.50;7.50;;;;;;;41.78;35.70;100769.50;5065592;28;20501;-79
2023/04/08 06:05:41;;;;;;;16.93;5.80;;;;;;;42.09;34.58;100776.41;5050499;28;20952;-79
2023/04/08 06:08:07;;;;;;;20.27;6.60;;;;;;;41.93;34.91;100770.00;5058671;28;20415;-78
2023/04/08 06:10:33;;;;;;;15.00;5.80;;;;;;;41.97;35.17;100765.47;5052862;28;20561;-80
2023/04/08 06:12:59;;;;;;;21.37;6.47;;;;;;;42.07;35.67;100765.06;5048290;28;20529;-79
2023/04/08 06:15:25;;;;;;;19.20;6.20;;;;;;;42.13;35.51;100766.44;5060244;28;20193;-79
2023/04/08 06:17:51;;;;;;;20.80;7.60;;;;;;;42.07;35.63;100762.34;5062092;28;20462;-80
2023/04/08 06:20:17;;;;;;;21.23;6.77;;;;;;;42.08;35.28;100772.09;5060863;28;20414;-79
2023/04/08 06:22:43;;;;;;;27.47;7.00;;;;;;;41.43;35.99;100774.44;5052609;28;20532;-80
2023/04/08 06:25:09;;;;;;;17.60;6.83;;;;;;;41.75;35.64;100793.91;5053312;28;20455;-80
2023/04/08 06:27:35;;;;;;;17.93;6.73;;;;;;;41.82;35.39;100788.72;5043931;28;20184;-81
2023/04/08 06:30:01;;;;;;;14.87;7.30;;;;;;;42.01;35.32;100799.91;5060039;28;20481;-81
2023/04/08 06:32:27;;;;;;;13.60;5.90;;;;;;;42.14;35.43;100803.47;5067990;28;20429;-81
2023/04/08 06:34:53;;;;;;;16.87;5.07;;;;;;;42.18;35.08;100815.31;5068753;28;20821;-81
2023/04/08 06:37:19;;;;;;;15.50;6.13;;;;;;;41.93;35.52;100833.50;5069287;28;20229;-81
2023/04/08 06:39:46;;;;;;;21.30;6.43;;;;;;;42.08;34.89;100823.88;5069701;28;20421;-81
2023/04/08 06:42:12;;;;;;;22.17;9.90;;;;;;;42.17;34.77;100818.34;5063558;28;20516;-81
2023/04/08 06:44:38;;;;;;;22.53;7.43;;;;;;;42.05;35.50;100827.25;5049808;28;20958;-81
2023/04/08 06:47:04;;;;;;;24.77;6.67;;;;;;;42.05;35.19;100832.72;5031135;28;20427;-81
2023/04/08 06:49:30;;;;;;;20.40;6.13;;;;;;;42.11;35.42;100839.53;5058289;28;20298;-85
2023/04/08 06:51:56;;;;;;;23.87;6.53;;;;;;;42.12;35.45;100838.44;5057391;28;20469;-83
2023/04/08 06:54:22;;;;;;;20.07;7.20;;;;;;;42.06;35.16;100850.69;5061073;28;20815;-80
2023/04/08 06:56:48;;;;;;;15.23;6.63;;;;;;;42.03;35.42;100851.34;5046740;28;20427;-81
2023/04/08 06:59:14;;;;;;;22.50;6.23;;;;;;;42.27;35.12;100854.16;5042050;28;20916;-82
2023/04/08 07:01:40;;;;;;;12.37;6.43;;;;;;;42.18;35.20;100856.22;5041560;28;20418;-83
2023/04/08 07:04:06;;;;;;;18.60;7.37;;;;;;;42.29;35.40;100860.06;5042273;28;20500;-82
2023/04/08 07:06:32;;;;;;;17.87;7.10;;;;;;;42.33;35.15;100858.28;5045996;28;20466;-85
2023/04/08 07:09:01;;;;;;;15.37;7.50;;;;;;;42.26;35.03;100858.03;5041835;28;20476;-84
2023/04/08 07:11:27;;;;;;;16.27;6.47;;;;;;;41.95;35.61;100844.84;5036688;28;20538;-82
2023/04/08 07:13:53;;;;;;;17.00;7.67;;;;;;;41.71;35.67;100844.72;5058911;28;20464;-83
2023/04/08 07:16:19;;;;;;;16.70;6.17;;;;;;;42.15;35.01;100867.72;5059982;28;20454;-84
2023/04/08 07:18:46;;;;;;;18.33;6.60;;;;;;;42.37;34.94;100875.56;5059659;28;20726;-82
2023/04/08 07:21:12;;;;;;;22.70;9.20;;;;;;;42.42;34.70;100885.47;5048942;28;20175;-83
2023/04/08 07:23:38;;;;;;;28.80;15.47;;;;;;;42.48;35.06;100894.19;5038623;28;20970;-86
2023/04/08 07:26:07;;;;;;;40.00;23.90;;;;;;;42.42;35.62;100899.09;5042992;28;20177;-87
2023/04/08 07:28:33;;;;;;;46.00;27.87;;;;;;;42.43;35.89;100897.16;5041247;28;20569;-84
2023/04/08 07:31:13;;;;;;;41.77;25.43;;;;;;;42.42;35.74;100904.56;5046714;28;20446;-86
2023/04/08 07:33:39;;;;;;;37.70;27.07;;;;;;;42.53;35.50;100907.63;5040819;28;20275;-86
2023/04/08 07:36:05;;;;;;;33.97;21.50;;;;;;;42.49;35.70;100907.53;5036262;28;20431;-83
2023/04/08 07:38:32;;;;;;;44.67;22.73;;;;;;;42.35;35.78;100913.25;5054557;28;20450;-82
2023/04/08 07:40:58;;;;;;;39.90;20.10;;;;;;;42.59;35.56;100925.41;5057170;28;20430;-82
2023/04/08 07:43:24;;;;;;;35.83;19.70;;;;;;;42.56;35.42;100923.34;5050113;28;20430;-84
2023/04/08 07:45:50;;;;;;;41.17;17.47;;;;;;;42.53;35.46;100915.81;5045939;28;20176;-84
2023/04/08 07:48:20;;;;;;;31.00;16.17;;;;;;;42.64;35.54;100928.72;5041247;28;20180;-81
2023/04/08 07:50:47;;;;;;;37.17;16.80;;;;;;;42.56;35.24;100907.75;5054254;28;20474;-82
2023/04/08 07:53:14;;;;;;;25.10;11.03;;;;;;;42.73;34.95;100928.63;5066911;28;20418;-82
2023/04/08 07:55:41;;;;;;;22.03;10.93;;;;;;;42.32;35.45;100911.22;5052571;28;20806;-81
2023/04/08 07:58:07;;;;;;;18.73;9.70;;;;;;;42.28;35.31;100909.50;5048893;28;20971;-81
2023/04/08 08:00:33;;;;;;;23.90;9.70;;;;;;;42.50;35.28;100916.50;5039947;28;20411;-83
2023/04/08 08:02:59;;;;;;;25.83;10.00;;;;;;;42.49;35.28;100914.91;5039777;28;20429;-82
2023/04/08 08:05:25;;;;;;;24.97;12.37;;;;;;;42.53;35.20;100921.25;5066046;28;20175;-81
2023/04/08 08:07:51;;;;;;;22.03;10.00;;;;;;;42.60;34.94;100918.81;5054052;28;20418;-82
2023/04/08 08:10:17;;;;;;;32.00;10.90;;;;;;;42.61;35.24;100921.22;5061096;28;20583;-82
2023/04/08 08:12:43;;;;;;;23.03;10.17;;;;;;;42.70;35.43;100933.97;5056968;28;20674;-81
2023/04/08 08:15:09;;;;;;;21.03;11.43;;;;;;;42.67;35.27;100932.72;5072344;28;20426;-82
2023/04/08 08:17:35;;;;;;;22.03;9.40;;;;;;;42.77;35.51;100929.53;5070403;28;20171;-81
2023/04/08 08:20:03;;;;;;;23.90;9.03;;;;;;;42.56;35.47;100940.50;5071068;28;20437;-83
2023/04/08 08:22:29;;;;;;;24.10;13.47;;;;;;;42.89;34.86;100951.38;5052049;28;20426;-83
2023/04/08 08:24:56;;;;;;;19.73;10.27;;;;;;;42.82;35.16;100950.34;5053109;28;20422;-83
2023/04/08 08:27:23;;;;;;;21.23;9.00;;;;;;;42.79;34.74;100956.50;5064648;28;20425;-81
2023/04/08 08:29:49;;;;;;;17.40;9.23;;;;;;;42.71;35.10;100949.97;5064897;28;20464;-81
2023/04/08 08:32:15;;;;;;;24.30;9.47;;;;;;;42.51;35.63;100946.16;5065139;28;20425;-82
2023/04/08 08:34:41;;;;;;;23.13;9.30;;;;;;;42.55;35.41;100949.03;5052171;28;20423;-82
2023/04/08 08:37:07;;;;;;;18.43;9.17;;;;;;;42.57;35.43;100952.19;5069667;28;20422;-80
2023/04/08 08:39:32;;;;;;;25.23;9.70;;;;;;;42.05;36.14;100952.63;5072646;28;20197;-81
2023/04/08 08:41:58;;;;;;;22.63;9.23;;;;;;;42.35;35.99;100923.38;5055245;28;20442;-82
2023/04/08 08:44:25;;;;;;;30.47;12.13;;;;;;;42.51;36.02;100942.63;5052936;28;20422;-81
2023/04/08 08:46:52;;;;;;;23.77;9.93;;;;;;;42.50;36.03;100930.94;5053117;28;20442;-81
2023/04/08 08:49:18;;;;;;;18.40;8.13;;;;;;;42.62;34.96;100927.47;5053049;28;20418;-81
2023/04/08 08:51:46;;;;;;;18.53;8.97;;;;;;;42.70;35.31;100939.41;5042797;28;21069;-82
2023/04/08 08:54:14;;;;;;;17.43;7.67;;;;;;;42.75;34.83;100941.94;5033407;28;20423;-83
2023/04/08 08:56:42;;;;;;;28.70;7.27;;;;;;;42.71;35.19;100949.97;5047192;28;20813;-83
2023/04/08 08:59:08;;;;;;;14.33;5.20;;;;;;;42.74;34.48;100954.78;5033555;28;20427;-82
2023/04/08 09:01:36;;;;;;;14.47;6.50;;;;;;;42.68;34.56;100947.94;5047537;28;20414;-81
2023/04/08 09:04:10;;;;;;;20.80;7.27;;;;;;;42.73;34.43;100949.66;5065452;28;20421;-81
2023/04/08 09:06:36;;;;;;;20.70;5.93;;;;;;;42.66;34.53;100947.47;5052536;28;20434;-82
2023/04/08 09:09:09;;;;;;;14.40;5.60;;;;;;;42.58;34.42;100948.38;5066533;28;20425;-82
2023/04/08 09:11:37;;;;;;;17.03;6.20;;;;;;;42.96;34.28;100952.75;5068492;28;20496;-82
2023/04/08 09:14:05;;;;;;;27.03;8.97;;;;;;;42.89;34.92;100951.38;5068214;28;20456;-83
2023/04/08 09:16:31;;;;;;;22.20;7.00;;;;;;;42.55;35.18;100954.47;5061817;28;20898;-82
2023/04/08 09:19:12;;;;;;;34.33;8.97;;;;;;;42.47;35.00;100952.63;5070289;28;20430;-81
2023/04/08 09:21:40;;;;;;;16.13;5.50;;;;;;;42.78;34.32;100961.13;5059362;28;20415;-82
2023/04/08 09:24:07;;;;;;;14.70;5.27;;;;;;;42.93;34.86;100967.88;5051936;28;20945;-81
2023/04/08 09:26:34;;;;;;;15.10;5.70;;;;;;;42.90;34.70;100974.81;5051883;28;20426;-81
2023/04/08 09:29:04;;;;;;;14.53;6.53;;;;;;;42.87;34.62;100961.84;5064464;28;20425;-82
2023/04/08 09:31:32;;;;;;;17.77;6.87;;;;;;;42.52;34.25;100949.69;5051536;28;20458;-79
2023/04/08 09:34:01;;;;;;;21.50;6.67;;;;;;;42.71;34.59;100947.25;5038974;28;20504;-82
2023/04/08 09:36:27;;;;;;;17.17;6.87;;;;;;;43.01;34.10;100958.03;5063745;28;20547;-81
2023/04/08 09:38:55;;;;;;;23.50;10.03;;;;;;;43.08;34.23;100950.06;5051889;28;20415;-82
2023/04/08 09:41:23;;;;;;;17.53;6.13;;;;;;;42.76;34.41;100960.69;5054719;28;20442;-81
2023/04/08 09:43:56;;;;;;;12.80;5.93;;;;;;;43.04;33.87;100960.88;5051983;28;20415;-81
2023/04/08 09:46:27;;;;;;;21.47;8.50;;;;;;;42.82;34.56;100947.63;5052244;28;20488;-83
2023/04/08 09:49:05;;;;;;;17.13;6.70;;;;;;;42.79;34.01;100946.38;5071780;28;20563;-83
2023/04/08 09:51:35;;;;;;;21.77;7.30;;;;;;;42.95;34.08;100943.78;5045852;28;20539;-81
2023/04/08 09:54:09;;;;;;;23.47;6.23;;;;;;;42.74;35.14;100953.97;5038010;28;20982;-81
2023/04/08 09:56:42;;;;;;;16.90;6.50;;;;;;;42.44;35.17;100947.84;5037438;28;20423;-83
2023/04/08 09:59:16;;;;;;;23.17;7.30;;;;;;;42.62;35.05;100933.72;5039781;28;20959;-82
2023/04/08 10:01:51;;;;;;;16.47;6.00;;;;;;;42.39;35.26;100913.41;5043139;28;20450;-82
2023/04/08 10:04:20;;;;;;;10.17;4.40;;;;;;;42.56;35.18;100918.69;5036805;28;20442;-81
2023/04/08 10:06:56;;;;;;;20.90;6.57;;;;;;;42.69;34.74;100916.81;5042274;28;20456;-81
2023/04/08 10:09:23;;;;;;;28.77;5.63;;;;;;;42.78;34.73;100914.75;5035411;28;20419;-81
2023/04/08 10:11:50;;;;;;;13.43;6.10;;;;;;;42.59;34.78;100909.03;5045197;28;20557;-81
2023/04/08 10:14:16;;;;;;;15.50;5.40;;;;;;;42.49;34.94;100904.00;5034230;28;20422;-81
2023/04/08 10:16:42;;;;;;;16.00;7.70;;;;;;;42.79;34.60;100919.09;5031840;28;20452;-84
2023/04/08 10:19:40;;;;;;;20.40;6.33;;;;;;;42.96;34.18;100925.47;5036528;28;20423;-80
2023/04/08 10:22:27;;;;;;;19.53;5.50;;;;;;;42.89;34.81;100924.09;5039218;28;20416;-80
2023/04/08 10:25:32;;;;;;;18.03;5.87;;;;;;;42.95;34.54;100929.34;5052038;28;21023;-83
2023/04/08 10:28:00;;;;;;;16.80;4.70;;;;;;;42.85;34.21;100917.75;5000819;28;20427;-83
2023/04/08 10:30:32;;;;;;;13.93;5.30;;;;;;;43.21;34.27;100932.56;5047086;28;20460;-83
2023/04/08 10:32:59;;;;;;;11.30;4.50;;;;;;;43.31;34.28;100926.63;5031960;28;20823;-82
2023/04/08 10:35:34;;;;;;;18.90;5.37;;;;;;;43.03;34.41;100925.72;5037918;28;20431;-83
2023/04/08 10:38:01;;;;;;;19.13;6.47;;;;;;;43.10;34.07;100928.72;5051368;28;20434;-80
2023/04/08 10:40:27;;;;;;;20.40;6.60;;;;;;;43.19;34.10;100924.72;5047569;28;20467;-83
2023/04/08 10:42:57;;;;;;;16.37;5.53;;;;;;;43.06;33.58;100925.06;5037936;28;20478;-82
2023/04/08 10:45:23;;;;;;;20.83;6.60;;;;;;;43.23;33.65;100922.09;5044583;28;20431;-83
2023/04/08 10:47:50;;;;;;;16.20;6.10;;;;;;;43.27;34.12;100930.38;5033259;28;20424;-87
2023/04/08 10:50:18;;;;;;;16.90;6.30;;;;;;;43.26;33.59;100935.06;5051061;28;20562;-84
2023/04/08 10:52:48;;;;;;;9.70;4.40;;;;;;;42.95;34.27;100932.06;5038413;28;20420;-84
2023/04/08 10:55:15;;;;;;;21.13;5.73;;;;;;;43.18;34.33;100930.53;5053267;28;20434;-82
2023/04/08 10:57:41;;;;;;;25.30;6.93;;;;;;;43.03;34.39;100936.63;5055715;28;20903;-83
2023/04/08 11:00:11;;;;;;;20.83;6.37;;;;;;;43.05;34.29;100931.66;5048064;28;20423;-84
2023/04/08 11:02:37;;;;;;;12.67;5.27;;;;;;;43.29;34.12;100928.13;5046727;28;21008;-82
2023/04/08 11:05:06;;;;;;;14.60;5.13;;;;;;;43.23;34.43;100935.75;5044401;28;20435;-83
2023/04/08 11:07:33;;;;;;;18.77;6.10;;;;;;;43.32;34.10;100928.22;5052940;28;20501;-83
2023/04/08 11:10:02;;;;;;;12.90;5.10;;;;;;;43.34;33.66;100925.97;5051935;28;20548;-83
2023/04/08 11:12:28;;;;;;;14.27;4.97;;;;;;;43.34;33.28;100911.50;5039300;28;21141;-83
2023/04/08 11:14:56;;;;;;;12.60;4.70;;;;;;;42.96;33.63;100909.88;5043619;28;20431;-83
2023/04/08 11:17:22;;;;;;;17.27;6.37;;;;;;;42.67;34.81;100904.66;5032898;28;20427;-84
2023/04/08 11:19:51;;;;;;;16.37;6.20;;;;;;;43.18;34.06;100900.50;5043482;28;20810;-84